Terminal Aerodrome Forecast
Issued by NWS

Home | Current Version | Previous Version | Graphics & Text | Print | Product List | Glossary On
Versions: 1 2 3 4 5 6 7 8 9 10 11 12
000
FTUS42 KMHX 182337
TAFOAJ
TAF
KOAJ 182337Z 1900/1924 23009KT P6SM BKN200
     FM190100 21005KT P6SM OVC080
     FM191100 VRB04KT P6SM SCT070
      AMD LTD TO CLD VIS AND WIND=

USA.gov is the U.S. government's official web portal to all federal, state and local government web resources and services.